createdAt,value
2018-05-13T00:02:09.627Z,16.39
2018-05-13T00:04:37.923Z,16.41
2018-05-13T00:07:06.423Z,16.38
2018-05-13T00:09:34.741Z,16.39
2018-05-13T00:12:03.059Z,16.35
2018-05-13T00:14:31.343Z,16.27
2018-05-13T00:16:59.663Z,16.35
2018-05-13T00:19:28.328Z,16.26
2018-05-13T00:21:56.647Z,16.29
2018-05-13T00:24:24.970Z,16.26
2018-05-13T00:26:53.284Z,16.35
2018-05-13T00:29:21.699Z,16.26
2018-05-13T00:31:50.026Z,16.23
2018-05-13T00:34:18.317Z,16.22
2018-05-13T00:36:46.651Z,16.15
2018-05-13T00:39:15.040Z,16.18
2018-05-13T00:41:43.560Z,16.10
2018-05-13T00:44:12.035Z,16.14
2018-05-13T00:46:40.372Z,16.11
2018-05-13T00:49:08.794Z,16.00
2018-05-13T00:51:37.110Z,16.02
2018-05-13T00:54:14.344Z,15.95
2018-05-13T00:56:42.730Z,15.97
2018-05-13T00:59:11.273Z,16.03
2018-05-13T01:01:39.632Z,16.04
2018-05-13T01:04:07.954Z,15.97
2018-05-13T01:06:36.278Z,15.97
2018-05-13T01:09:05.749Z,15.87
2018-05-13T01:11:34.141Z,15.93
2018-05-13T01:14:03.040Z,15.96
2018-05-13T01:16:31.403Z,15.94
2018-05-13T01:18:59.696Z,15.91
2018-05-13T01:21:28.037Z,15.93
2018-05-13T01:23:56.352Z,15.88
2018-05-13T01:26:24.752Z,15.84
2018-05-13T01:28:53.050Z,15.82
2018-05-13T01:31:21.430Z,15.77
2018-05-13T01:33:49.735Z,15.71
2018-05-13T01:36:18.136Z,15.71
2018-05-13T01:38:46.407Z,15.64
2018-05-13T01:41:14.884Z,15.60
2018-05-13T01:43:43.210Z,15.63
2018-05-13T01:46:11.566Z,15.73
2018-05-13T01:48:39.844Z,15.78
2018-05-13T01:51:08.176Z,15.74
2018-05-13T01:53:36.631Z,15.80
2018-05-13T01:56:04.971Z,15.75
2018-05-13T01:58:33.279Z,15.74
2018-05-13T02:01:01.826Z,15.70
2018-05-13T02:03:30.178Z,15.73
2018-05-13T02:05:58.671Z,15.65
2018-05-13T02:08:26.964Z,15.73
2018-05-13T02:10:55.273Z,15.63
2018-05-13T02:13:23.552Z,15.73
2018-05-13T02:15:51.869Z,15.67
2018-05-13T02:18:20.222Z,15.73
2018-05-13T02:20:48.551Z,15.60
2018-05-13T02:23:16.996Z,15.67
2018-05-13T02:25:45.326Z,15.69
2018-05-13T02:28:14.029Z,15.71
2018-05-13T02:30:42.515Z,15.66
2018-05-13T02:33:10.816Z,15.65
2018-05-13T02:35:39.144Z,15.62
2018-05-13T02:38:07.467Z,15.59
2018-05-13T02:40:35.781Z,15.60
2018-05-13T02:43:04.125Z,15.56
2018-05-13T02:45:32.446Z,15.46
2018-05-13T02:48:00.796Z,15.44
2018-05-13T02:50:29.117Z,15.49
2018-05-13T02:53:00.552Z,15.43
2018-05-13T02:55:28.941Z,15.36
2018-05-13T02:57:57.485Z,15.42
2018-05-13T03:00:26.120Z,15.42
2018-05-13T03:02:54.438Z,15.32
2018-05-13T03:05:22.832Z,15.35
2018-05-13T03:07:51.165Z,15.30
2018-05-13T03:10:19.511Z,15.26
2018-05-13T03:12:47.827Z,15.24
2018-05-13T03:15:16.359Z,15.26
2018-05-13T03:17:44.720Z,15.25
2018-05-13T03:20:13.180Z,15.27
2018-05-13T03:22:41.568Z,15.26
2018-05-13T03:25:10.161Z,15.22
2018-05-13T03:27:38.506Z,15.35
2018-05-13T03:30:06.823Z,15.30
2018-05-13T03:32:35.272Z,15.26
2018-05-13T03:35:03.608Z,15.28
2018-05-13T03:37:32.047Z,15.19
2018-05-13T03:40:00.332Z,15.15
2018-05-13T03:42:28.674Z,15.20
2018-05-13T03:44:56.987Z,15.34
2018-05-13T03:47:25.328Z,15.42
2018-05-13T03:49:53.643Z,15.42
2018-05-13T03:52:21.971Z,15.55
2018-05-13T03:54:50.260Z,15.44
2018-05-13T03:57:18.676Z,15.50
2018-05-13T03:59:47.144Z,15.61
2018-05-13T04:05:10.979Z,15.61
2018-05-13T04:07:44.869Z,15.66
2018-05-13T04:14:30.050Z,15.77
2018-05-13T04:16:58.373Z,15.79
2018-05-13T04:19:26.611Z,15.86
2018-05-13T04:21:54.923Z,15.95
2018-05-13T04:24:23.182Z,16.01
2018-05-13T04:26:51.516Z,15.91
2018-05-13T04:29:19.779Z,16.02
2018-05-13T04:31:48.195Z,16.00
2018-05-13T04:34:16.438Z,16.16
2018-05-13T04:36:44.758Z,16.18
2018-05-13T04:39:13.001Z,16.27
2018-05-13T04:41:41.311Z,16.34
2018-05-13T04:44:09.602Z,16.33
2018-05-13T04:46:37.918Z,16.41
2018-05-13T04:49:06.181Z,16.46
2018-05-13T04:51:34.490Z,16.50
2018-05-13T04:54:02.755Z,16.60
2018-05-13T04:56:31.094Z,16.56
2018-05-13T04:58:59.382Z,16.69
2018-05-13T05:01:27.731Z,16.71
2018-05-13T05:03:56.043Z,16.80
2018-05-13T05:06:24.348Z,16.74
2018-05-13T05:08:52.782Z,16.89
2018-05-13T05:11:21.026Z,16.97
2018-05-13T05:13:49.295Z,17.10
2018-05-13T05:16:17.643Z,17.21
2018-05-13T05:18:45.926Z,17.14
2018-05-13T05:21:14.247Z,17.13
2018-05-13T05:23:42.547Z,17.30
2018-05-13T05:26:10.862Z,17.37
2018-05-13T05:28:39.169Z,17.28
2018-05-13T05:31:07.606Z,17.52
2018-05-13T05:33:36.079Z,17.61
2018-05-13T05:36:04.469Z,17.60
2018-05-13T05:38:32.739Z,17.79
2018-05-13T05:41:01.046Z,17.83
2018-05-13T05:43:29.297Z,17.96
2018-05-13T05:45:57.613Z,18.09
2018-05-13T05:48:25.899Z,18.09
2018-05-13T05:50:54.234Z,18.30
2018-05-13T05:53:22.570Z,18.37
2018-05-13T05:55:50.905Z,18.30
2018-05-13T05:58:19.178Z,18.41
2018-05-13T06:00:47.538Z,18.59
2018-05-13T06:03:15.989Z,18.71
2018-05-13T06:05:44.338Z,18.87
2018-05-13T06:08:12.577Z,18.83
2018-05-13T06:10:40.890Z,18.92
2018-05-13T06:13:09.155Z,19.12
2018-05-13T06:15:37.505Z,19.09
2018-05-13T06:18:05.863Z,19.12
2018-05-13T06:20:34.372Z,19.48
2018-05-13T06:23:02.639Z,19.57
2018-05-13T06:25:30.961Z,19.56
2018-05-13T06:27:59.198Z,19.69
2018-05-13T06:30:27.862Z,19.75
2018-05-13T06:32:56.142Z,19.81
2018-05-13T06:35:24.492Z,19.69
2018-05-13T06:37:52.769Z,19.72
2018-05-13T06:40:21.188Z,20.04
2018-05-13T06:42:49.678Z,20.25
2018-05-13T06:45:18.106Z,20.35
2018-05-13T06:47:46.573Z,20.26
2018-05-13T06:50:14.918Z,20.55
2018-05-13T06:52:43.218Z,20.51
2018-05-13T06:55:11.560Z,20.33
2018-05-13T06:57:40.134Z,20.66
2018-05-13T07:00:10.995Z,20.56
2018-05-13T07:02:40.451Z,20.69
2018-05-13T07:05:08.746Z,20.80
2018-05-13T07:07:37.081Z,20.95
2018-05-13T07:10:05.746Z,21.07
2018-05-13T07:12:34.453Z,21.10
2018-05-13T07:15:02.774Z,21.11
2018-05-13T07:17:31.079Z,21.18
2018-05-13T07:19:59.326Z,21.39
2018-05-13T07:22:27.649Z,21.41
2018-05-13T07:24:58.763Z,21.55
2018-05-13T07:27:27.261Z,21.39
2018-05-13T07:29:55.931Z,21.50
2018-05-13T07:32:24.270Z,21.68
2018-05-13T07:34:52.542Z,21.79
2018-05-13T07:37:20.859Z,21.43
2018-05-13T07:39:50.954Z,21.49
2018-05-13T07:42:19.427Z,21.67
2018-05-13T07:44:47.768Z,21.73
2018-05-13T07:47:16.445Z,21.73
2018-05-13T07:49:44.775Z,22.00
2018-05-13T07:52:13.106Z,22.14
2018-05-13T07:54:41.383Z,22.36
2018-05-13T07:57:09.693Z,22.67
2018-05-13T07:59:37.971Z,22.46
2018-05-13T08:02:06.279Z,22.49
2018-05-13T08:04:34.563Z,22.21
2018-05-13T08:07:02.932Z,22.06
2018-05-13T08:09:32.106Z,22.60
2018-05-13T08:12:01.132Z,22.50
2018-05-13T08:14:29.605Z,22.95
2018-05-13T08:16:58.699Z,22.93
2018-05-13T08:19:27.002Z,22.97
2018-05-13T08:21:55.364Z,22.98
2018-05-13T08:24:24.116Z,22.91
2018-05-13T08:26:52.582Z,23.14
2018-05-13T08:29:20.891Z,22.98
2018-05-13T08:31:49.235Z,23.13
2018-05-13T08:34:17.515Z,23.52
2018-05-13T08:36:45.934Z,23.41
2018-05-13T08:39:14.585Z,23.43
2018-05-13T08:41:42.881Z,23.54
2018-05-13T08:44:11.541Z,23.30
2018-05-13T08:46:39.903Z,23.24
2018-05-13T08:49:08.347Z,23.65
2018-05-13T08:51:36.643Z,23.78
2018-05-13T08:54:08.188Z,23.39
2018-05-13T08:56:36.483Z,23.89
2018-05-13T08:59:04.735Z,23.70
2018-05-13T09:01:33.199Z,23.77
2018-05-13T09:04:01.462Z,23.80
2018-05-13T09:06:29.804Z,24.01
2018-05-13T09:08:58.083Z,24.14
2018-05-13T09:11:26.409Z,24.02
2018-05-13T09:13:54.959Z,24.21
2018-05-13T09:16:23.524Z,24.48
2018-05-13T09:18:51.793Z,24.52
2018-05-13T09:21:20.228Z,24.56
2018-05-13T09:23:48.844Z,24.33
2018-05-13T09:26:17.245Z,24.39
2018-05-13T09:28:45.512Z,24.59
2018-05-13T09:31:13.811Z,24.72
2018-05-13T09:33:42.624Z,24.78
2018-05-13T09:36:11.099Z,24.54
2018-05-13T09:38:39.508Z,24.63
2018-05-13T09:41:07.866Z,24.76
2018-05-13T09:43:36.126Z,25.19
2018-05-13T09:46:04.471Z,25.09
2018-05-13T09:48:32.727Z,24.98
2018-05-13T09:51:01.040Z,25.21
2018-05-13T09:53:29.663Z,25.09
2018-05-13T09:55:58.004Z,25.21
2018-05-13T09:58:26.294Z,25.30
2018-05-13T10:00:54.631Z,25.67
2018-05-13T10:03:22.966Z,25.67
2018-05-13T10:05:54.218Z,25.58
2018-05-13T10:08:22.536Z,25.48
2018-05-13T10:10:50.902Z,25.61
2018-05-13T10:13:19.362Z,25.56
2018-05-13T10:15:47.651Z,25.62
2018-05-13T10:18:15.917Z,25.30
2018-05-13T10:20:44.202Z,26.09
2018-05-13T10:23:12.571Z,26.23
2018-05-13T10:25:41.351Z,25.97
2018-05-13T10:28:09.993Z,26.18
2018-05-13T10:30:38.269Z,27.00
2018-05-13T10:33:06.538Z,26.79
2018-05-13T10:35:35.018Z,26.97
2018-05-13T10:38:04.027Z,27.15
2018-05-13T10:40:32.378Z,27.12
2018-05-13T10:43:00.843Z,27.08
2018-05-13T10:45:29.179Z,27.83
2018-05-13T10:47:57.466Z,27.78
2018-05-13T10:50:25.771Z,28.70
2018-05-13T10:52:54.225Z,27.99
2018-05-13T10:55:22.542Z,28.53
2018-05-13T10:57:51.724Z,28.77
2018-05-13T11:00:19.959Z,29.30
2018-05-13T11:02:48.666Z,29.67
2018-05-13T11:05:16.995Z,29.31
2018-05-13T11:07:45.679Z,29.61
2018-05-13T11:10:14.001Z,29.52
2018-05-13T11:12:42.515Z,29.49
2018-05-13T11:15:10.798Z,29.55
2018-05-13T11:17:39.444Z,30.25
2018-05-13T11:20:07.770Z,30.61
2018-05-13T11:22:36.444Z,30.80
2018-05-13T11:25:04.923Z,30.16
2018-05-13T11:27:33.204Z,29.96
2018-05-13T11:30:04.683Z,30.72
2018-05-13T11:32:32.982Z,29.74
2018-05-13T11:35:01.229Z,30.40
2018-05-13T11:37:30.752Z,30.84
2018-05-13T11:40:01.456Z,31.33
2018-05-13T11:42:30.658Z,31.29
2018-05-13T11:44:59.205Z,31.52
2018-05-13T11:47:30.207Z,31.14
2018-05-13T11:49:58.495Z,31.40
2018-05-13T11:52:26.831Z,31.61
2018-05-13T11:54:55.970Z,31.53
2018-05-13T11:57:24.283Z,31.55
2018-05-13T11:59:52.640Z,31.85
2018-05-13T12:02:20.973Z,31.65
2018-05-13T12:04:51.254Z,32.72
2018-05-13T12:07:20.689Z,32.45
2018-05-13T12:09:48.985Z,32.31
2018-05-13T12:12:17.289Z,32.23
2018-05-13T12:14:45.998Z,32.52
2018-05-13T12:17:14.318Z,32.19
2018-05-13T12:19:42.574Z,32.46
2018-05-13T12:22:10.886Z,32.24
2018-05-13T12:24:40.555Z,32.25
2018-05-13T12:27:09.034Z,33.50
2018-05-13T12:29:40.282Z,33.19
2018-05-13T12:32:08.622Z,33.22
2018-05-13T12:34:36.970Z,31.64
2018-05-13T12:37:05.495Z,33.12
2018-05-13T12:39:33.742Z,33.94
2018-05-13T12:42:02.071Z,33.85
2018-05-13T12:44:30.492Z,34.33
2018-05-13T12:46:58.817Z,34.50
2018-05-13T12:49:27.261Z,34.16
2018-05-13T12:51:55.599Z,34.52
2018-05-13T12:54:24.171Z,33.92
2018-05-13T12:56:52.874Z,34.43
2018-05-13T12:59:21.649Z,34.97
2018-05-13T13:01:50.903Z,35.13
2018-05-13T13:04:19.354Z,36.27
2018-05-13T13:06:48.015Z,35.25
2018-05-13T13:09:16.534Z,35.46
2018-05-13T13:11:44.963Z,36.15
2018-05-13T13:14:13.250Z,35.76
2018-05-13T13:16:41.575Z,35.65
2018-05-13T13:19:09.853Z,35.79
2018-05-13T13:21:38.240Z,35.97
2018-05-13T13:24:06.555Z,35.92
2018-05-13T13:26:34.912Z,35.32
2018-05-13T13:29:03.622Z,36.77
2018-05-13T13:31:32.015Z,35.52
2018-05-13T13:34:01.285Z,37.36
2018-05-13T13:36:30.485Z,37.32
2018-05-13T13:38:58.771Z,35.39
2018-05-13T13:41:27.076Z,36.27
2018-05-13T13:43:55.354Z,37.15
2018-05-13T13:46:23.675Z,36.41
2018-05-13T13:48:51.971Z,36.54
2018-05-13T13:51:20.484Z,35.48
2018-05-13T13:53:49.426Z,36.06
2018-05-13T13:56:17.719Z,36.62
2018-05-13T13:58:46.047Z,36.73
2018-05-13T14:01:14.564Z,35.68
2018-05-13T14:03:42.922Z,37.10
2018-05-13T14:06:11.227Z,37.00
2018-05-13T14:08:39.675Z,36.39
2018-05-13T14:11:08.041Z,37.84
2018-05-13T14:13:36.552Z,36.29
2018-05-13T14:16:04.883Z,36.05
2018-05-13T14:18:33.243Z,36.23
2018-05-13T14:21:01.874Z,36.00
2018-05-13T14:23:30.134Z,36.26
2018-05-13T14:25:58.623Z,36.27
2018-05-13T14:28:27.000Z,36.97
2018-05-13T14:30:55.350Z,35.87
2018-05-13T14:33:23.665Z,35.93
2018-05-13T14:35:51.978Z,35.93
2018-05-13T14:38:20.254Z,35.66
2018-05-13T14:40:48.561Z,35.85
2018-05-13T14:43:16.850Z,36.76
2018-05-13T14:45:45.219Z,37.83
2018-05-13T14:48:13.553Z,36.31
2018-05-13T14:50:42.042Z,35.52
2018-05-13T14:53:10.308Z,36.08
2018-05-13T14:55:38.603Z,34.58
2018-05-13T14:58:06.953Z,35.15
2018-05-13T15:00:35.207Z,32.77
2018-05-13T15:03:03.487Z,30.62
2018-05-13T15:05:31.806Z,29.68
2018-05-13T15:08:00.112Z,31.79
2018-05-13T15:10:28.423Z,33.96
2018-05-13T15:12:56.738Z,32.79
2018-05-13T15:15:25.028Z,30.76
2018-05-13T15:17:53.327Z,29.18
2018-05-13T15:20:21.643Z,28.67
2018-05-13T15:22:49.929Z,28.42
2018-05-13T15:25:18.318Z,28.08
2018-05-13T15:27:46.769Z,28.63
2018-05-13T15:30:15.073Z,27.58
2018-05-13T15:32:43.542Z,27.45
2018-05-13T15:35:12.055Z,27.63
2018-05-13T15:37:40.383Z,27.79
2018-05-13T15:40:08.782Z,27.84
2018-05-13T15:42:37.388Z,30.45
2018-05-13T15:45:07.986Z,29.82
2018-05-13T15:47:36.825Z,31.27
2018-05-13T15:50:06.167Z,32.24
2018-05-13T15:52:35.871Z,32.33
2018-05-13T15:55:06.023Z,32.65
2018-05-13T15:57:36.987Z,31.24
2018-05-13T16:00:07.801Z,28.76
2018-05-13T16:02:39.698Z,28.99
2018-05-13T16:05:14.019Z,31.58
2018-05-13T16:07:47.123Z,32.62
2018-05-13T16:10:17.000Z,31.25
2018-05-13T16:12:52.876Z,30.87
2018-05-13T16:15:24.071Z,30.39
2018-05-13T16:17:53.372Z,28.46
2018-05-13T16:20:24.302Z,27.76
2018-05-13T16:22:53.825Z,28.17
2018-05-13T16:25:24.584Z,27.40
2018-05-13T16:27:57.880Z,28.68
2018-05-13T16:30:28.706Z,27.40
2018-05-13T16:32:58.848Z,27.03
2018-05-13T16:35:28.312Z,26.42
2018-05-13T16:38:00.449Z,26.45
2018-05-13T16:40:30.025Z,26.04
2018-05-13T16:43:00.352Z,26.00
2018-05-13T16:45:32.973Z,26.11
2018-05-13T16:48:05.025Z,26.07
2018-05-13T16:50:36.404Z,25.71
2018-05-13T16:53:09.182Z,25.78
2018-05-13T16:55:40.118Z,25.59
2018-05-13T16:58:09.554Z,25.50
2018-05-13T17:00:44.126Z,25.38
2018-05-13T17:03:15.610Z,25.30
2018-05-13T17:05:46.675Z,25.39
2018-05-13T17:08:17.469Z,25.41
2018-05-13T17:10:51.919Z,25.18
2018-05-13T17:13:21.598Z,25.04
2018-05-13T17:15:52.480Z,24.98
2018-05-13T17:18:26.907Z,24.83
2018-05-13T17:20:56.569Z,24.75
2018-05-13T17:23:27.593Z,24.75
2018-05-13T17:25:56.353Z,24.66
2018-05-13T17:28:26.192Z,24.57
2018-05-13T17:30:55.989Z,24.57
2018-05-13T17:33:26.839Z,24.47
2018-05-13T17:35:58.847Z,24.40
2018-05-13T17:38:28.987Z,24.37
2018-05-13T17:41:00.844Z,24.37
2018-05-13T17:43:32.941Z,24.30
2018-05-13T17:46:03.829Z,24.19
2018-05-13T17:48:33.769Z,24.24
2018-05-13T17:51:04.421Z,24.11
2018-05-13T17:53:36.748Z,23.98
2018-05-13T17:56:05.727Z,24.04
2018-05-13T17:58:38.181Z,23.92
2018-05-13T18:01:08.051Z,23.85
2018-05-13T18:03:38.936Z,23.84
2018-05-13T18:06:11.213Z,23.86
2018-05-13T18:08:44.599Z,23.70
2018-05-13T18:11:14.791Z,23.72
2018-05-13T18:13:46.633Z,23.70
2018-05-13T18:16:21.848Z,23.50
2018-05-13T18:18:52.983Z,23.51
2018-05-13T18:21:29.421Z,23.37
2018-05-13T18:23:58.296Z,23.31
2018-05-13T18:26:28.514Z,23.28
2018-05-13T18:28:59.445Z,23.26
2018-05-13T18:31:28.624Z,23.13
2018-05-13T18:33:59.820Z,22.99
2018-05-13T18:36:36.141Z,22.91
2018-05-13T18:39:08.180Z,22.84
2018-05-13T18:41:40.903Z,22.52
2018-05-13T18:51:04.866Z,22.72
2018-05-13T18:53:36.183Z,22.69
2018-05-13T18:56:07.171Z,22.61
2018-05-13T18:58:42.501Z,22.48
2018-05-13T19:01:14.008Z,22.39
2018-05-13T19:03:48.739Z,22.37
2018-05-13T19:06:21.536Z,22.18
2018-05-13T19:08:55.818Z,22.28
2018-05-13T19:11:28.070Z,22.25
2018-05-13T19:15:00.878Z,22.12
2018-05-13T19:17:31.384Z,22.05
2018-05-13T19:20:04.111Z,21.92
2018-05-13T19:22:35.559Z,21.88
2018-05-13T19:25:05.426Z,21.82
2018-05-13T19:27:39.714Z,21.74
2018-05-13T19:30:12.838Z,21.73
2018-05-13T19:32:42.831Z,21.53
2018-05-13T19:35:15.746Z,21.48
2018-05-13T19:37:50.355Z,21.37
2018-05-13T19:40:20.721Z,21.37
2018-05-13T19:42:51.696Z,21.25
2018-05-13T19:45:29.687Z,21.10
2018-05-13T19:48:02.745Z,21.07
2018-05-13T19:50:34.355Z,21.12
2018-05-13T19:53:06.265Z,21.07
2018-05-13T19:55:37.410Z,21.02
2018-05-13T19:58:09.421Z,20.97
2018-05-13T20:00:43.395Z,20.96
2018-05-13T20:03:17.334Z,20.91
2018-05-13T20:05:46.890Z,20.95
2018-05-13T20:08:17.229Z,20.88
2018-05-13T20:10:47.794Z,20.83
2018-05-13T20:13:22.169Z,20.73
2018-05-13T20:15:55.593Z,20.87
2018-05-13T20:18:24.996Z,20.77
2018-05-13T20:20:57.556Z,20.54
2018-05-13T20:23:28.504Z,20.55
2018-05-13T20:26:01.438Z,20.51
2018-05-13T20:28:35.045Z,20.47
2018-05-13T20:31:07.784Z,20.41
2018-05-13T20:33:38.803Z,20.39
2018-05-13T20:36:10.785Z,20.44
2018-05-13T20:38:44.924Z,20.29
2018-05-13T20:41:17.767Z,20.17
2018-05-13T20:43:51.436Z,20.10
2018-05-13T20:46:21.681Z,20.24
2018-05-13T20:48:54.042Z,20.11
2018-05-13T20:51:23.838Z,20.06
2018-05-13T20:53:56.284Z,20.01
2018-05-13T20:56:29.331Z,19.95
2018-05-13T20:59:04.103Z,19.92
2018-05-13T21:01:35.673Z,19.83
2018-05-13T21:04:07.861Z,19.87
2018-05-13T21:06:38.396Z,19.74
2018-05-13T21:09:08.247Z,19.76
2018-05-13T21:11:39.265Z,19.73
2018-05-13T21:14:09.035Z,19.71
2018-05-13T21:16:37.609Z,19.62
2018-05-13T21:19:06.959Z,19.62
2018-05-13T21:21:37.822Z,19.58
2018-05-13T21:24:08.261Z,19.51
2018-05-13T21:26:37.512Z,19.60
2018-05-13T21:29:06.634Z,19.55
2018-05-13T21:31:37.001Z,19.55
2018-05-13T21:34:05.559Z,19.43
2018-05-13T21:36:34.628Z,19.44
2018-05-13T21:39:04.653Z,19.48
2018-05-13T21:41:34.472Z,19.39
2018-05-13T21:44:03.585Z,19.30
2018-05-13T21:46:35.193Z,19.28
2018-05-13T21:49:04.721Z,19.25
2018-05-13T21:51:33.680Z,19.18
2018-05-13T21:54:03.767Z,19.22
2018-05-13T21:56:33.808Z,19.23
2018-05-13T21:59:03.613Z,19.15
2018-05-13T22:01:34.340Z,19.18
2018-05-13T22:04:03.726Z,19.08
2018-05-13T22:06:32.712Z,19.14
2018-05-13T22:09:02.681Z,19.02
2018-05-13T22:11:32.985Z,19.08
2018-05-13T22:14:02.094Z,19.03
2018-05-13T22:16:30.717Z,18.91
2018-05-13T22:19:00.112Z,18.90
2018-05-13T22:21:31.588Z,18.89
2018-05-13T22:24:00.184Z,18.91
2018-05-13T22:26:28.976Z,18.86
2018-05-13T22:28:57.516Z,18.87
2018-05-13T22:31:26.106Z,18.82
2018-05-13T22:33:55.858Z,18.73
2018-05-13T22:36:25.493Z,18.65
2018-05-13T22:38:54.053Z,18.67
2018-05-13T22:41:23.385Z,18.67
2018-05-13T22:43:51.942Z,18.57
2018-05-13T22:46:20.625Z,18.63
2018-05-13T22:48:50.077Z,18.46
2018-05-13T22:51:19.831Z,18.52
2018-05-13T22:53:49.757Z,18.53
2018-05-13T22:56:20.251Z,18.52
2018-05-13T22:58:52.944Z,18.42
2018-05-13T23:01:21.855Z,18.33
2018-05-13T23:03:51.315Z,18.35
2018-05-13T23:06:20.256Z,18.36
2018-05-13T23:08:49.150Z,18.30
2018-05-13T23:11:18.766Z,18.33
2018-05-13T23:13:47.686Z,18.30
2018-05-13T23:16:16.120Z,18.21
2018-05-13T23:18:44.860Z,18.12
2018-05-13T23:21:14.511Z,18.16
2018-05-13T23:23:44.820Z,18.06
2018-05-13T23:26:15.099Z,17.98
2018-05-13T23:28:43.945Z,17.98
2018-05-13T23:31:13.756Z,17.98
2018-05-13T23:33:42.266Z,17.90
2018-05-13T23:36:10.994Z,17.88
2018-05-13T23:38:39.654Z,17.86
2018-05-13T23:41:09.043Z,17.88
2018-05-13T23:43:37.402Z,17.75
2018-05-13T23:46:08.180Z,17.64
2018-05-13T23:48:36.845Z,17.59
2018-05-13T23:51:05.357Z,17.66
2018-05-13T23:53:34.036Z,17.61
2018-05-13T23:56:03.227Z,17.55
2018-05-13T23:58:32.166Z,17.69
